createdAt,value
2023-02-16T00:03:36.735Z,37.17
2023-02-16T00:08:33.135Z,38.25
2023-02-16T00:13:47.913Z,34.65
2023-02-16T00:18:44.776Z,34.92
2023-02-16T00:23:41.657Z,35.45
2023-02-16T00:28:38.041Z,32.13
2023-02-16T00:33:34.405Z,37.95
2023-02-16T00:38:30.832Z,31.92
2023-02-16T00:43:29.075Z,31.70
2023-02-16T00:48:25.528Z,38.33
2023-02-16T00:53:21.930Z,35.60
2023-02-16T00:58:25.466Z,34.60
2023-02-16T01:03:28.028Z,39.70
2023-02-16T01:13:47.556Z,40.42
2023-02-16T01:18:44.527Z,34.75
2023-02-16T01:23:41.432Z,37.25
2023-02-16T01:28:37.969Z,41.83
2023-02-16T01:33:34.377Z,37.15
2023-02-16T01:38:31.255Z,39.10
2023-02-16T01:43:48.159Z,37.42
2023-02-16T01:48:44.544Z,41.22
2023-02-16T01:53:55.076Z,38.58
2023-02-16T01:58:55.743Z,43.97
2023-02-16T02:04:10.728Z,43.30
2023-02-16T02:09:13.129Z,40.72
2023-02-16T02:14:16.350Z,42.42
2023-02-16T02:19:12.854Z,41.22
2023-02-16T02:24:37.157Z,45.97
2023-02-16T02:29:48.592Z,44.28
2023-02-16T02:34:59.561Z,52.67
2023-02-16T02:40:15.346Z,50.03
2023-02-16T02:45:24.063Z,54.70
2023-02-16T02:51:02.877Z,46.08
2023-02-16T02:56:21.413Z,51.95
2023-02-16T03:01:19.098Z,47.35
2023-02-16T03:06:23.116Z,53.58
2023-02-16T03:11:41.761Z,51.30
2023-02-16T03:16:42.757Z,63.97
2023-02-16T03:21:59.198Z,60.72
2023-02-16T03:27:15.704Z,59.88
2023-02-16T03:32:12.366Z,59.17
2023-02-16T03:37:09.651Z,62.10
2023-02-16T03:42:06.301Z,59.80
2023-02-16T03:47:02.689Z,53.97
2023-02-16T03:51:59.081Z,51.95
2023-02-16T03:56:55.529Z,53.88
2023-02-16T04:01:51.991Z,58.40
2023-02-16T04:06:48.437Z,53.10
2023-02-16T04:12:03.148Z,54.13
2023-02-16T04:16:59.592Z,54.65
2023-02-16T04:21:56.053Z,54.00
2023-02-16T04:26:52.727Z,59.42
2023-02-16T04:31:49.889Z,56.97
2023-02-16T04:36:46.413Z,53.67
2023-02-16T04:41:42.915Z,58.78
2023-02-16T04:46:39.343Z,58.15
2023-02-16T04:51:35.766Z,51.28
2023-02-16T04:56:32.232Z,44.53
2023-02-16T05:01:29.013Z,48.25
2023-02-16T05:06:25.586Z,50.83
2023-02-16T05:11:41.026Z,51.63
2023-02-16T05:16:37.605Z,52.08
2023-02-16T05:21:35.542Z,55.20
2023-02-16T05:26:33.236Z,56.00
2023-02-16T05:31:30.487Z,58.42
2023-02-16T05:36:27.204Z,55.85
2023-02-16T05:41:23.824Z,53.85
2023-02-16T05:46:22.093Z,52.35
2023-02-16T05:51:19.251Z,50.83
2023-02-16T05:56:16.941Z,59.92
2023-02-16T06:01:14.090Z,54.53
2023-02-16T06:06:11.046Z,55.85
2023-02-16T06:11:27.474Z,55.63
2023-02-16T06:16:26.125Z,53.50
2023-02-16T06:21:23.106Z,55.42
2023-02-16T06:26:20.137Z,61.53
2023-02-16T06:31:17.314Z,51.90
2023-02-16T06:36:14.032Z,52.97
2023-02-16T06:41:12.186Z,52.05
2023-02-16T06:46:08.649Z,53.67
2023-02-16T06:51:05.685Z,54.25
2023-02-16T06:56:02.417Z,56.95
2023-02-16T07:00:58.906Z,55.22
2023-02-16T07:05:55.415Z,54.10
2023-02-16T07:10:53.905Z,56.13
2023-02-16T07:15:50.339Z,59.30
2023-02-16T07:20:47.553Z,51.95
2023-02-16T07:25:44.002Z,53.65
2023-02-16T07:30:40.956Z,52.92
2023-02-16T07:35:38.011Z,51.22
2023-02-16T07:40:34.434Z,51.35
2023-02-16T07:45:33.083Z,52.60
2023-02-16T07:50:29.537Z,50.75
2023-02-16T07:55:25.928Z,49.85
2023-02-16T08:00:22.553Z,52.78
2023-02-16T08:05:18.994Z,50.03
2023-02-16T08:10:15.740Z,54.55
2023-02-16T08:15:12.503Z,56.30
2023-02-16T08:20:09.648Z,55.25
2023-02-16T08:25:07.157Z,49.83
2023-02-16T08:30:04.096Z,51.35
2023-02-16T08:35:00.677Z,50.15
2023-02-16T08:40:00.522Z,55.95
2023-02-16T08:44:57.072Z,48.22
2023-02-16T08:49:53.484Z,48.88
2023-02-16T08:54:50.154Z,52.15
2023-02-16T09:00:06.649Z,46.97
2023-02-16T09:05:03.074Z,52.17
2023-02-16T09:09:59.450Z,43.92
2023-02-16T09:14:55.868Z,50.63
2023-02-16T09:19:52.285Z,50.35
2023-02-16T09:24:48.716Z,46.15
2023-02-16T09:29:45.173Z,48.80
2023-02-16T09:34:42.202Z,55.58
2023-02-16T09:39:38.576Z,49.05
2023-02-16T09:45:09.759Z,48.10
2023-02-16T09:50:38.172Z,49.10
2023-02-16T09:56:04.366Z,53.80
2023-02-16T10:06:29.307Z,53.38
2023-02-16T10:11:51.219Z,48.03
2023-02-16T10:17:01.481Z,46.03
2023-02-16T10:22:03.567Z,54.00
2023-02-16T10:27:07.391Z,38.72
2023-02-16T10:32:26.968Z,51.60
2023-02-16T10:38:01.568Z,48.08
2023-02-16T10:43:11.835Z,50.47
2023-02-16T10:48:09.957Z,52.35
2023-02-16T10:53:13.328Z,54.05
2023-02-16T10:58:36.522Z,51.50
2023-02-16T11:03:39.904Z,44.65
2023-02-16T11:08:49.724Z,48.60
2023-02-16T11:13:50.183Z,44.38
2023-02-16T11:18:56.411Z,55.60
2023-02-16T11:24:01.937Z,50.33
2023-02-16T11:29:17.612Z,47.67
2023-02-16T11:34:22.497Z,47.00
2023-02-16T11:39:24.247Z,54.28
2023-02-16T11:44:39.574Z,52.17
2023-02-16T11:49:41.513Z,55.05
2023-02-16T11:54:47.745Z,53.00
2023-02-16T11:59:44.176Z,63.53
2023-02-16T12:04:57.623Z,51.38
2023-02-16T12:10:08.435Z,49.60
2023-02-16T12:15:15.119Z,55.60
2023-02-16T12:20:35.242Z,62.38
2023-02-16T12:25:39.197Z,63.63
2023-02-16T12:30:49.498Z,59.83
2023-02-16T12:36:09.054Z,68.38
2023-02-16T12:41:31.743Z,70.25
2023-02-16T12:46:38.161Z,61.97
2023-02-16T12:51:43.423Z,70.18
2023-02-16T12:56:45.388Z,62.90
2023-02-16T13:01:44.115Z,73.18
2023-02-16T13:06:59.229Z,78.20
2023-02-16T13:12:01.581Z,72.30
2023-02-16T13:17:03.041Z,72.25
2023-02-16T13:22:16.811Z,81.03
2023-02-16T13:27:28.127Z,74.80
2023-02-16T13:32:49.982Z,82.90
2023-02-16T13:37:59.848Z,79.93
2023-02-16T13:43:31.815Z,71.38
2023-02-16T13:48:38.263Z,67.47
2023-02-16T13:53:41.572Z,70.38
2023-02-16T13:58:40.676Z,65.60
2023-02-16T14:03:38.837Z,72.43
2023-02-16T14:08:35.220Z,70.70
2023-02-16T14:13:37.571Z,69.85
2023-02-16T14:19:26.014Z,72.72
2023-02-16T14:24:25.528Z,67.55
2023-02-16T14:29:32.688Z,68.18
2023-02-16T14:34:37.272Z,70.45
2023-02-16T14:39:36.414Z,75.20
2023-02-16T14:45:01.600Z,62.85
2023-02-16T14:50:20.618Z,61.67
2023-02-16T14:55:42.045Z,67.38
2023-02-16T15:00:45.922Z,62.75
2023-02-16T15:05:43.269Z,68.47
2023-02-16T15:10:40.235Z,60.83
2023-02-16T15:15:45.731Z,58.47
2023-02-16T15:20:45.880Z,65.55
2023-02-16T15:25:42.261Z,65.90
2023-02-16T15:30:54.860Z,67.20
2023-02-16T15:35:59.917Z,65.60
2023-02-16T15:40:59.532Z,64.40
2023-02-16T15:45:56.726Z,64.07
2023-02-16T15:50:56.448Z,68.90
2023-02-16T15:55:53.386Z,68.85
2023-02-16T16:00:49.853Z,76.70
2023-02-16T16:06:00.146Z,78.40
2023-02-16T16:10:57.121Z,83.18
2023-02-16T16:15:59.686Z,76.38
2023-02-16T16:25:57.587Z,88.68
2023-02-16T16:31:06.566Z,86.80
2023-02-16T16:36:12.159Z,83.82
2023-02-16T16:41:25.911Z,87.10
2023-02-16T16:46:27.481Z,84.60
2023-02-16T16:51:23.791Z,81.40
2023-02-16T16:56:21.839Z,76.10
2023-02-16T17:01:20.559Z,81.10
2023-02-16T17:06:18.578Z,72.97
2023-02-16T17:11:35.341Z,65.03
2023-02-16T17:16:36.488Z,71.32
2023-02-16T17:21:32.964Z,60.78
2023-02-16T17:26:29.442Z,63.13
2023-02-16T17:31:25.902Z,59.53
2023-02-16T17:36:25.415Z,62.45
2023-02-16T17:41:27.739Z,63.05
2023-02-16T17:46:25.442Z,67.70
2023-02-16T17:51:24.638Z,61.75
2023-02-16T17:56:22.976Z,62.92
2023-02-16T18:01:20.698Z,62.83
2023-02-16T18:06:20.486Z,57.30
2023-02-16T18:11:17.096Z,58.75
2023-02-16T18:16:18.439Z,63.10
2023-02-16T18:21:14.908Z,68.80
2023-02-16T18:26:15.696Z,65.03
2023-02-16T18:31:13.020Z,66.43
2023-02-16T18:36:09.683Z,59.10
2023-02-16T18:41:06.142Z,62.63
2023-02-16T18:46:09.873Z,63.10
2023-02-16T18:51:08.576Z,60.28
2023-02-16T18:56:06.652Z,58.03
2023-02-16T19:01:24.919Z,67.68
2023-02-16T19:06:21.526Z,61.88
2023-02-16T19:11:22.005Z,63.85
2023-02-16T19:16:18.476Z,59.80
2023-02-16T19:21:15.020Z,62.17
2023-02-16T19:26:14.458Z,76.68
2023-02-16T19:31:20.750Z,68.10
2023-02-16T19:36:18.726Z,62.15
2023-02-16T19:41:21.273Z,70.32
2023-02-16T19:51:15.301Z,88.68
2023-02-16T19:56:16.055Z,72.28
2023-02-16T20:01:16.004Z,85.10
2023-02-16T20:06:16.306Z,70.55
2023-02-16T20:11:13.590Z,69.93
2023-02-16T20:16:11.408Z,66.10
2023-02-16T20:21:12.516Z,73.40
2023-02-16T20:26:21.966Z,80.72
2023-02-16T20:31:28.892Z,75.63
2023-02-16T20:36:25.765Z,63.42
2023-02-16T20:41:22.941Z,66.70
2023-02-16T20:46:23.624Z,80.88
2023-02-16T20:51:20.963Z,82.30
2023-02-16T20:56:21.541Z,72.70
2023-02-16T21:01:27.622Z,71.70
2023-02-16T21:06:25.562Z,81.97
2023-02-16T21:11:22.322Z,76.90
2023-02-16T21:16:19.081Z,94.45
2023-02-16T21:21:15.881Z,77.85
2023-02-16T21:26:12.552Z,75.10
2023-02-16T21:31:12.057Z,81.10
2023-02-16T21:36:13.829Z,76.68
2023-02-16T21:41:25.506Z,81.83
2023-02-16T21:46:22.771Z,75.88
2023-02-16T21:51:22.121Z,72.45
2023-02-16T21:56:46.292Z,76.68
2023-02-16T22:01:47.008Z,68.50
2023-02-16T22:06:46.249Z,80.80
2023-02-16T22:11:44.322Z,65.15
2023-02-16T22:16:41.379Z,65.80
2023-02-16T22:21:39.481Z,59.97
2023-02-16T22:26:35.961Z,60.70
2023-02-16T22:31:32.734Z,59.00
2023-02-16T22:36:29.631Z,59.75
2023-02-16T22:41:26.346Z,59.95
2023-02-16T22:46:24.020Z,55.88
2023-02-16T22:51:21.334Z,62.08
2023-02-16T22:56:18.699Z,54.60
2023-02-16T23:01:20.320Z,58.90
2023-02-16T23:06:20.174Z,56.63
2023-02-16T23:11:17.126Z,57.33
2023-02-16T23:16:19.046Z,58.70
2023-02-16T23:21:24.412Z,49.42
2023-02-16T23:26:23.330Z,51.42
2023-02-16T23:31:20.627Z,55.50
2023-02-16T23:36:17.231Z,55.17
2023-02-16T23:41:15.268Z,53.13
2023-02-16T23:46:11.860Z,53.72
2023-02-16T23:51:10.010Z,55.42
2023-02-16T23:56:11.943Z,57.42
